Time;durP1;ratioP1;P1;durP2;ratioP2;P2;SDS_P1;SDS_P2;PMS_P1;PMS_P2;Temp;Humidity;BMP_temperature;BMP_pressure;BME280_temperature;BME280_humidity;BME280_pressure;Samples;Min_cycle;Max_cycle;Signal;HPM_P1;HPM_P2
2022/10/21 00:00:33;;;;;;;11.70;6.45;;;13.50;99.90;;;;;;5062774;28;20042;-71
2022/10/21 00:02:59;;;;;;;17.73;6.35;;;13.60;99.90;;;;;;5058428;28;20388;-71
2022/10/21 00:05:25;;;;;;;13.48;6.32;;;13.50;99.90;;;;;;5055816;28;20064;-70
2022/10/21 00:07:51;;;;;;;15.40;6.22;;;13.50;99.90;;;;;;5054421;28;20090;-71
2022/10/21 00:10:16;;;;;;;13.35;6.30;;;13.50;99.90;;;;;;5055405;28;20439;-70
2022/10/21 00:12:42;;;;;;;14.15;6.32;;;13.60;99.90;;;;;;5058586;28;20027;-72
2022/10/21 00:15:09;;;;;;;17.52;6.63;;;13.60;99.90;;;;;;5048671;28;20033;-72
2022/10/21 00:17:37;;;;;;;16.80;6.18;;;13.60;99.90;;;;;;5056378;28;20047;-71
2022/10/21 00:20:04;;;;;;;13.98;6.53;;;13.60;99.90;;;;;;5055982;28;20037;-71
2022/10/21 00:22:30;;;;;;;15.10;7.15;;;13.70;99.90;;;;;;5045649;28;20452;-71
2022/10/21 00:24:56;;;;;;;18.05;6.82;;;13.70;99.90;;;;;;5057191;28;20823;-70
2022/10/21 00:27:21;;;;;;;13.70;6.47;;;13.70;99.90;;;;;;5063946;28;20033;-71
2022/10/21 00:29:47;;;;;;;16.15;6.18;;;13.70;99.90;;;;;;5054986;28;20029;-70
2022/10/21 00:32:12;;;;;;;15.95;6.32;;;13.80;99.90;;;;;;5054688;28;20097;-71
2022/10/21 00:34:41;;;;;;;15.50;6.00;;;13.80;99.90;;;;;;5063710;28;20468;-72
2022/10/21 00:37:10;;;;;;;13.48;5.78;;;13.80;99.90;;;;;;5056265;28;20020;-74
2022/10/21 00:39:37;;;;;;;15.13;6.63;;;13.80;99.90;;;;;;5064649;28;20062;-70
2022/10/21 00:42:05;;;;;;;17.40;6.35;;;13.80;99.90;;;;;;5053369;28;20370;-71
2022/10/21 00:44:30;;;;;;;12.15;5.60;;;13.80;99.90;;;;;;5052046;28;20088;-71
2022/10/21 00:46:59;;;;;;;15.65;6.15;;;13.90;99.90;;;;;;5062072;28;20033;-70
2022/10/21 00:50:03;;;;;;;11.23;6.15;;;13.90;99.90;;;;;;5059328;28;20036;-71
2022/10/21 00:52:31;;;;;;;19.38;6.60;;;13.90;99.90;;;;;;5062918;28;20107;-70
2022/10/21 00:55:01;;;;;;;21.27;6.28;;;13.90;99.90;;;;;;5065766;28;20063;-71
2022/10/21 00:57:27;;;;;;;13.05;6.93;;;13.90;99.90;;;;;;5052021;28;20497;-71
2022/10/21 00:59:57;;;;;;;17.77;6.80;;;13.90;99.90;;;;;;5058190;28;20037;-71
2022/10/21 01:02:22;;;;;;;14.63;6.47;;;13.90;99.90;;;;;;5052795;28;20033;-71
2022/10/21 01:04:52;;;;;;;13.50;6.50;;;13.90;99.90;;;;;;5056744;28;20143;-70
2022/10/21 01:07:18;;;;;;;12.82;6.28;;;13.90;99.90;;;;;;5055613;28;20021;-71
2022/10/21 01:09:44;;;;;;;16.20;6.15;;;13.90;99.90;;;;;;5058615;28;20032;-71
2022/10/21 01:12:32;;;;;;;13.68;6.38;;;13.90;99.90;;;;;;5057042;28;20036;-72
2022/10/21 01:15:09;;;;;;;15.40;6.28;;;13.90;99.90;;;;;;5060115;28;20282;-70
2022/10/21 01:17:47;;;;;;;14.90;5.97;;;13.90;99.90;;;;;;5049537;28;20087;-70
2022/10/21 01:20:34;;;;;;;14.20;5.93;;;13.90;99.90;;;;;;5050362;28;20059;-71
2022/10/21 01:23:15;;;;;;;13.65;5.30;;;13.80;99.90;;;;;;5053596;28;20098;-71
2022/10/21 01:26:02;;;;;;;11.93;4.80;;;13.80;99.90;;;;;;5062726;28;20029;-72
2022/10/21 01:28:27;;;;;;;15.35;5.82;;;13.80;99.90;;;;;;5055362;28;20064;-71
2022/10/21 01:30:58;;;;;;;10.15;4.82;;;13.70;99.90;;;;;;5057388;28;20524;-69
2022/10/21 01:33:33;;;;;;;12.10;5.22;;;13.70;99.90;;;;;;5058494;28;20028;-72
2022/10/21 01:36:13;;;;;;;10.85;4.80;;;13.80;99.90;;;;;;5051303;28;20036;-70
2022/10/21 01:39:03;;;;;;;12.50;4.80;;;13.80;99.90;;;;;;5053393;28;20068;-71
2022/10/21 01:42:07;;;;;;;11.63;5.03;;;13.80;99.90;;;;;;5052412;28;20045;-70
2022/10/21 01:44:40;;;;;;;12.25;4.65;;;13.90;99.90;;;;;;5009240;28;20041;-70
2022/10/21 01:47:16;;;;;;;11.00;4.72;;;14.00;99.90;;;;;;5044345;28;20029;-72
2022/10/21 01:49:54;;;;;;;10.10;3.90;;;14.00;99.90;;;;;;5055714;28;20086;-71
2022/10/21 01:52:21;;;;;;;9.55;4.20;;;14.00;99.90;;;;;;5055398;28;20040;-70
2022/10/21 01:54:55;;;;;;;10.52;4.53;;;14.00;99.90;;;;;;5052615;28;20040;-72
2022/10/21 01:57:25;;;;;;;12.60;4.30;;;14.00;99.90;;;;;;5054720;28;20642;-70
2022/10/21 01:59:51;;;;;;;;;;;14.00;99.90;;;;;;5057341;28;20139;-70
2022/10/21 02:02:20;;;;;;;10.60;4.45;;;14.10;99.90;;;;;;5055898;28;19999;-71
2022/10/21 02:04:48;;;;;;;15.20;5.00;;;14.10;99.90;;;;;;5059274;28;20035;-72
2022/10/21 02:07:14;;;;;;;11.80;4.85;;;14.10;99.90;;;;;;5064089;28;20037;-71
2022/10/21 02:09:39;;;;;;;9.70;3.95;;;14.10;99.90;;;;;;5059384;28;20033;-71
2022/10/21 02:12:06;;;;;;;11.80;4.43;;;14.10;99.90;;;;;;5053661;28;20039;-71
2022/10/21 02:14:38;;;;;;;14.82;5.63;;;14.10;99.90;;;;;;5049347;28;20119;-72
2022/10/21 02:17:05;;;;;;;11.20;6.15;;;14.10;99.90;;;;;;5050717;28;20037;-71
2022/10/21 02:19:30;;;;;;;11.90;5.45;;;14.10;99.90;;;;;;5058162;28;20044;-71
2022/10/21 02:21:59;;;;;;;13.38;5.65;;;14.10;99.90;;;;;;5056823;28;20564;-70
2022/10/21 02:24:52;;;;;;;11.35;4.97;;;14.00;99.90;;;;;;5059379;27;20182;-71
2022/10/21 02:27:19;;;;;;;17.50;6.18;;;14.00;99.90;;;;;;5060834;28;20485;-71
2022/10/21 02:29:47;;;;;;;14.35;5.57;;;14.00;99.90;;;;;;5062902;28;20059;-71
2022/10/21 02:32:27;;;;;;;16.73;5.38;;;13.90;99.90;;;;;;5056444;28;20576;-71
2022/10/21 02:35:01;;;;;;;16.27;6.22;;;13.90;99.90;;;;;;5057130;28;20037;-70
2022/10/21 02:37:49;;;;;;;18.65;5.57;;;13.80;99.90;;;;;;5055426;28;20505;-72
2022/10/21 02:40:36;;;;;;;13.98;5.75;;;13.80;99.90;;;;;;5056886;28;20039;-70
2022/10/21 02:43:33;;;;;;;22.10;6.68;;;13.80;99.90;;;;;;5060021;28;20032;-73
2022/10/21 02:46:04;;;;;;;13.55;6.10;;;13.80;99.90;;;;;;5051420;28;20040;-70
2022/10/21 02:48:33;;;;;;;15.43;6.38;;;13.70;99.90;;;;;;5056542;28;20043;-72
2022/10/21 02:50:59;;;;;;;13.55;6.15;;;13.70;99.90;;;;;;5055308;28;20033;-70
2022/10/21 02:53:25;;;;;;;19.77;7.82;;;13.70;99.90;;;;;;5058896;28;20120;-70
2022/10/21 02:55:50;;;;;;;14.52;6.75;;;13.70;99.90;;;;;;5053803;28;20147;-71
2022/10/21 02:58:16;;;;;;;15.40;6.53;;;13.70;99.90;;;;;;5054565;28;20484;-72
2022/10/21 03:00:41;;;;;;;14.02;6.55;;;13.70;99.90;;;;;;5056462;28;20064;-71
2022/10/21 03:03:07;;;;;;;21.48;6.88;;;13.60;99.90;;;;;;5056536;28;20495;-69
2022/10/21 03:05:33;;;;;;;14.32;7.32;;;13.60;99.90;;;;;;5058533;28;20041;-70
2022/10/21 03:07:58;;;;;;;16.10;6.80;;;13.60;99.90;;;;;;5056524;28;20115;-69
2022/10/21 03:10:24;;;;;;;16.65;7.03;;;13.60;99.90;;;;;;5061401;28;20119;-71
2022/10/21 03:12:49;;;;;;;14.30;6.65;;;13.60;99.90;;;;;;5055601;28;20064;-72
2022/10/21 03:15:15;;;;;;;15.23;7.32;;;13.60;99.90;;;;;;5053223;28;20037;-72
2022/10/21 03:17:41;;;;;;;18.45;7.82;;;13.50;99.90;;;;;;5058106;28;20527;-72
2022/10/21 03:20:07;;;;;;;26.10;8.65;;;13.60;99.90;;;;;;5051303;28;20382;-70
2022/10/21 03:22:33;;;;;;;15.50;7.15;;;13.50;99.90;;;;;;5054976;28;20036;-71
2022/10/21 03:24:58;;;;;;;21.23;7.75;;;13.60;99.90;;;;;;5061143;28;20090;-71
2022/10/21 03:27:24;;;;;;;17.85;7.28;;;13.50;99.90;;;;;;5056460;28;20063;-71
2022/10/21 03:29:49;;;;;;;13.35;6.47;;;13.50;99.90;;;;;;5057840;28;20570;-71
2022/10/21 03:32:15;;;;;;;15.50;6.95;;;13.50;99.90;;;;;;5054272;28;20389;-71
2022/10/21 03:34:40;;;;;;;20.75;7.15;;;13.50;99.90;;;;;;5065319;28;20036;-70
2022/10/21 03:37:06;;;;;;;19.45;7.00;;;13.50;99.90;;;;;;5061713;28;20496;-71
2022/10/21 03:39:31;;;;;;;19.25;7.57;;;13.40;99.90;;;;;;5058498;28;20089;-70
2022/10/21 03:41:57;;;;;;;17.13;6.72;;;13.40;99.90;;;;;;5064963;28;20098;-71
2022/10/21 03:44:23;;;;;;;16.77;7.28;;;13.40;99.90;;;;;;5057010;28;20036;-70
2022/10/21 03:46:48;;;;;;;14.20;6.25;;;13.30;99.90;;;;;;5059661;28;20115;-70
2022/10/21 03:49:14;;;;;;;16.33;6.47;;;13.30;99.90;;;;;;5058424;28;20041;-71
2022/10/21 03:51:40;;;;;;;19.48;6.75;;;13.30;99.90;;;;;;5064181;28;20106;-69
2022/10/21 03:54:06;;;;;;;18.50;7.03;;;13.20;99.90;;;;;;5054553;28;20564;-70
2022/10/21 03:56:31;;;;;;;12.73;6.60;;;13.20;99.90;;;;;;5058205;28;20032;-70
2022/10/21 03:58:57;;;;;;;14.55;6.13;;;13.20;99.90;;;;;;5053879;28;20033;-71
2022/10/21 04:01:22;;;;;;;13.65;6.32;;;13.20;99.90;;;;;;5060763;28;20627;-70
2022/10/21 04:03:48;;;;;;;17.15;6.95;;;13.20;99.90;;;;;;5053479;28;20116;-71
2022/10/21 04:06:14;;;;;;;15.57;5.97;;;13.20;99.90;;;;;;5058417;28;20519;-71
2022/10/21 04:08:40;;;;;;;18.23;6.45;;;13.20;99.90;;;;;;5053692;28;20230;-70
2022/10/21 04:11:05;;;;;;;13.50;6.28;;;13.10;99.90;;;;;;5054373;28;20029;-71
2022/10/21 04:13:31;;;;;;;16.20;6.25;;;13.10;99.90;;;;;;5054902;28;20036;-71
2022/10/21 04:16:01;;;;;;;16.13;6.07;;;13.10;99.90;;;;;;5054888;28;20052;-70
2022/10/21 04:18:27;;;;;;;17.85;6.70;;;13.00;99.90;;;;;;5052837;28;20044;-71
2022/10/21 04:20:52;;;;;;;14.77;7.20;;;13.00;99.90;;;;;;5055384;28;20063;-71
2022/10/21 04:23:18;;;;;;;15.52;6.28;;;13.00;99.90;;;;;;5052692;28;20351;-71
2022/10/21 04:25:44;;;;;;;18.27;7.15;;;13.00;99.90;;;;;;5057319;28;20170;-71
2022/10/21 04:28:10;;;;;;;12.45;6.60;;;13.10;99.90;;;;;;5057065;28;20056;-71
2022/10/21 04:30:36;;;;;;;18.35;6.97;;;13.10;99.90;;;;;;5057841;28;20556;-71
2022/10/21 04:33:01;;;;;;;14.00;6.88;;;13.00;99.90;;;;;;5058900;28;20044;-70
2022/10/21 04:35:27;;;;;;;14.50;6.80;;;13.10;99.90;;;;;;5054327;28;20037;-70
2022/10/21 04:37:52;;;;;;;14.15;6.65;;;13.00;99.90;;;;;;5057044;28;20876;-71
2022/10/21 04:40:18;;;;;;;11.55;6.13;;;13.00;99.90;;;;;;5056756;28;20063;-72
2022/10/21 04:42:50;;;;;;;20.20;7.22;;;13.00;99.90;;;;;;5053617;28;20485;-71
2022/10/21 04:45:16;;;;;;;18.90;6.65;;;13.00;99.90;;;;;;5051165;28;20029;-72
2022/10/21 04:47:42;;;;;;;20.02;7.25;;;12.90;99.90;;;;;;5055496;28;20025;-71
2022/10/21 04:50:08;;;;;;;20.95;7.13;;;12.90;99.90;;;;;;5053439;28;20073;-72
2022/10/21 04:52:33;;;;;;;12.55;6.35;;;12.90;99.90;;;;;;5057662;28;20373;-69
2022/10/21 04:54:59;;;;;;;16.17;7.57;;;12.90;99.90;;;;;;5051988;28;20037;-72
2022/10/21 04:57:25;;;;;;;14.05;5.90;;;12.90;99.90;;;;;;5052146;28;20033;-71
2022/10/21 04:59:50;;;;;;;17.98;7.40;;;12.90;99.90;;;;;;5056663;28;20036;-71
2022/10/21 05:02:16;;;;;;;15.32;6.60;;;12.80;99.90;;;;;;5047760;28;20440;-71
2022/10/21 05:04:41;;;;;;;16.85;6.65;;;12.80;99.90;;;;;;5057086;28;20033;-71
2022/10/21 05:07:07;;;;;;;17.10;6.55;;;12.80;99.90;;;;;;5055186;28;21432;-72
2022/10/21 05:09:33;;;;;;;11.38;5.55;;;12.70;99.90;;;;;;5057353;28;20037;-70
2022/10/21 05:11:59;;;;;;;15.73;6.55;;;12.80;99.90;;;;;;5054036;28;20032;-71
2022/10/21 05:14:24;;;;;;;12.30;5.70;;;12.70;99.90;;;;;;5053461;28;20032;-71
2022/10/21 05:16:50;;;;;;;16.13;6.80;;;12.70;99.90;;;;;;5058425;28;20033;-71
2022/10/21 05:19:15;;;;;;;13.20;6.18;;;12.80;99.90;;;;;;5060622;28;20035;-72
2022/10/21 05:21:41;;;;;;;13.40;6.07;;;12.80;99.90;;;;;;5051475;28;20562;-71
2022/10/21 05:24:07;;;;;;;14.18;6.35;;;12.80;99.90;;;;;;5053251;28;20086;-73
2022/10/21 05:26:32;;;;;;;11.65;5.78;;;12.80;99.90;;;;;;5058657;28;20021;-70
2022/10/21 05:28:58;;;;;;;14.57;6.10;;;12.80;99.90;;;;;;5058984;28;20177;-71
2022/10/21 05:31:24;;;;;;;13.98;5.68;;;12.80;99.90;;;;;;5055654;28;20353;-69
2022/10/21 05:33:50;;;;;;;18.30;6.30;;;12.80;99.90;;;;;;5048277;28;20059;-70
2022/10/21 05:36:15;;;;;;;11.57;5.57;;;12.80;99.90;;;;;;5056414;28;20656;-71
2022/10/21 05:38:41;;;;;;;15.32;5.57;;;12.80;99.90;;;;;;5057445;28;20404;-72
2022/10/21 05:41:07;;;;;;;15.68;4.97;;;12.80;99.90;;;;;;5060575;28;20075;-70
2022/10/21 05:43:32;;;;;;;13.88;5.43;;;12.80;99.90;;;;;;5059583;28;20105;-69
2022/10/21 05:45:58;;;;;;;9.85;4.90;;;12.80;99.90;;;;;;5053116;28;20037;-70
2022/10/21 05:48:25;;;;;;;13.60;5.05;;;12.80;99.90;;;;;;5055202;28;20033;-71
2022/10/21 05:50:52;;;;;;;11.07;5.15;;;12.80;99.90;;;;;;5060736;28;20045;-70
2022/10/21 05:53:18;;;;;;;10.65;5.28;;;12.80;99.90;;;;;;5055210;28;20045;-71
2022/10/21 05:55:44;;;;;;;11.05;5.20;;;12.80;99.90;;;;;;5064806;28;20055;-72
2022/10/21 05:58:09;;;;;;;13.25;4.95;;;12.80;99.90;;;;;;5056346;28;20033;-71
2022/10/21 06:00:35;;;;;;;10.05;4.78;;;12.80;99.90;;;;;;5058718;28;20051;-71
2022/10/21 06:03:01;;;;;;;12.40;5.22;;;12.80;99.90;;;;;;5064871;28;20060;-71
2022/10/21 06:05:27;;;;;;;12.10;4.40;;;12.80;99.90;;;;;;5058194;28;20789;-70
2022/10/21 06:07:52;;;;;;;9.68;4.80;;;12.80;99.90;;;;;;5061178;28;20112;-71
2022/10/21 06:10:18;;;;;;;8.88;3.97;;;12.70;99.90;;;;;;5062207;28;20386;-72
2022/10/21 06:12:43;;;;;;;9.82;4.75;;;12.70;99.90;;;;;;5058644;28;20025;-71
2022/10/21 06:15:09;;;;;;;9.57;4.60;;;12.70;99.90;;;;;;5066573;28;20594;-70
2022/10/21 06:17:35;;;;;;;12.27;4.78;;;12.70;99.90;;;;;;5060373;28;20028;-71
2022/10/21 06:20:01;;;;;;;9.48;4.45;;;12.70;99.90;;;;;;5056591;28;20673;-70
2022/10/21 06:22:27;;;;;;;8.68;3.63;;;12.70;99.90;;;;;;5051045;28;20078;-72
2022/10/21 06:24:53;;;;;;;10.68;4.15;;;12.70;99.90;;;;;;5057032;28;20040;-70
2022/10/21 06:27:19;;;;;;;11.07;4.35;;;12.70;99.90;;;;;;5058020;28;20033;-72
2022/10/21 06:29:44;;;;;;;8.73;3.90;;;12.80;99.90;;;;;;5055431;28;20043;-70
2022/10/21 06:32:11;;;;;;;13.10;4.03;;;12.80;99.90;;;;;;5050953;28;20039;-70
2022/10/21 06:34:36;;;;;;;10.98;3.80;;;12.80;99.90;;;;;;5054408;28;20463;-69
2022/10/21 06:37:02;;;;;;;10.50;4.13;;;12.70;99.90;;;;;;5058543;28;20033;-69
2022/10/21 06:39:28;;;;;;;10.07;4.35;;;12.70;99.90;;;;;;5050501;28;20033;-73
2022/10/21 06:41:53;;;;;;;13.18;4.25;;;12.80;99.90;;;;;;5059756;28;20043;-71
2022/10/21 06:44:19;;;;;;;10.77;3.92;;;12.80;99.90;;;;;;5067056;28;20039;-70
2022/10/21 06:46:45;;;;;;;9.90;4.15;;;12.80;99.90;;;;;;5067507;28;20117;-71
2022/10/21 06:49:10;;;;;;;8.90;4.15;;;12.80;99.90;;;;;;5068218;28;20074;-71
2022/10/21 06:51:36;;;;;;;9.57;3.67;;;12.90;99.90;;;;;;5071503;28;20047;-71
2022/10/21 06:54:01;;;;;;;10.05;3.83;;;12.90;99.90;;;;;;5052250;28;20535;-71
2022/10/21 06:56:27;;;;;;;10.32;3.65;;;12.90;99.90;;;;;;5056831;28;20040;-70
2022/10/21 06:58:56;;;;;;;18.65;5.45;;;12.90;99.90;;;;;;5052919;28;20033;-71
2022/10/21 07:01:24;;;;;;;13.80;4.10;;;13.00;99.90;;;;;;5053271;28;20523;-71
2022/10/21 07:03:50;;;;;;;8.82;3.38;;;13.00;99.90;;;;;;5055178;28;20051;-70
2022/10/21 07:06:16;;;;;;;9.60;4.32;;;13.00;99.90;;;;;;5053326;28;20033;-71
2022/10/21 07:08:42;;;;;;;17.08;4.60;;;13.00;99.90;;;;;;5061130;28;20500;-71
2022/10/21 07:11:09;;;;;;;10.35;4.18;;;13.10;99.90;;;;;;5085050;27;20715;-72
2022/10/21 07:13:35;;;;;;;8.68;4.18;;;13.10;99.90;;;;;;5069497;28;20063;-70
2022/10/21 07:16:06;;;;;;;11.35;4.20;;;13.00;99.90;;;;;;5060309;28;20582;-71
2022/10/21 07:18:33;;;;;;;7.72;3.63;;;13.00;99.90;;;;;;5057785;28;20033;-72
2022/10/21 07:21:07;;;;;;;8.10;4.05;;;13.00;99.90;;;;;;5060884;28;20044;-70
2022/10/21 07:23:33;;;;;;;9.55;4.28;;;13.10;99.90;;;;;;5058840;28;20101;-71
2022/10/21 07:26:03;;;;;;;11.98;3.92;;;13.10;99.90;;;;;;5058126;28;20075;-72
2022/10/21 07:28:28;;;;;;;10.23;3.78;;;13.10;99.90;;;;;;5054825;28;20033;-70
2022/10/21 07:30:54;;;;;;;12.93;4.03;;;13.10;99.90;;;;;;5053938;28;20039;-69
2022/10/21 07:33:19;;;;;;;10.05;3.92;;;13.20;99.90;;;;;;5051262;28;20148;-71
2022/10/21 07:35:45;;;;;;;10.65;4.03;;;13.20;99.90;;;;;;5057360;28;20044;-71
2022/10/21 07:38:11;;;;;;;11.73;3.58;;;13.20;99.90;;;;;;5055384;28;20066;-70
2022/10/21 07:40:41;;;;;;;10.55;3.63;;;13.20;99.90;;;;;;5058900;28;20432;-70
2022/10/21 07:43:07;;;;;;;10.60;3.60;;;13.30;99.90;;;;;;5058199;28;20078;-70
2022/10/21 07:45:37;;;;;;;7.40;3.88;;;13.30;99.90;;;;;;5058335;28;20120;-69
2022/10/21 07:48:03;;;;;;;18.48;4.95;;;13.30;99.90;;;;;;5057594;28;20060;-73
2022/10/21 07:50:28;;;;;;;13.23;3.90;;;13.30;99.90;;;;;;5059910;28;20052;-70
2022/10/21 07:52:54;;;;;;;9.93;4.03;;;13.40;99.90;;;;;;5055812;28;20035;-73
2022/10/21 07:55:20;;;;;;;7.35;3.30;;;13.40;99.90;;;;;;5052377;28;20174;-71
2022/10/21 07:57:45;;;;;;;6.55;3.28;;;13.40;99.90;;;;;;5054949;28;20135;-72
2022/10/21 08:00:11;;;;;;;9.32;3.90;;;13.40;99.90;;;;;;5052958;28;20477;-71
2022/10/21 08:02:37;;;;;;;12.10;3.78;;;13.40;99.90;;;;;;5056828;28;20397;-69
2022/10/21 08:05:03;;;;;;;9.77;3.67;;;13.50;99.90;;;;;;5054467;28;20486;-68
2022/10/21 08:07:30;;;;;;;7.55;3.92;;;13.50;99.90;;;;;;5061948;28;20024;-70
2022/10/21 08:09:56;;;;;;;11.05;3.58;;;13.50;99.90;;;;;;5056525;28;20052;-71
2022/10/21 08:12:22;;;;;;;12.40;3.30;;;13.50;99.90;;;;;;5058975;28;20401;-69
2022/10/21 08:14:48;;;;;;;6.03;3.03;;;13.50;99.90;;;;;;5058073;28;20028;-70
2022/10/21 08:17:14;;;;;;;8.93;2.85;;;13.50;99.90;;;;;;5056662;28;20037;-72
2022/10/21 08:19:40;;;;;;;10.18;3.85;;;13.50;99.90;;;;;;5054417;28;20059;-70
2022/10/21 08:22:05;;;;;;;5.55;2.92;;;13.50;99.90;;;;;;5053767;28;20056;-68
2022/10/21 08:24:31;;;;;;;6.43;2.95;;;13.60;99.90;;;;;;5053664;28;20049;-72
2022/10/21 08:26:57;;;;;;;9.23;2.78;;;13.60;99.90;;;;;;5058509;27;20079;-69
2022/10/21 08:29:23;;;;;;;5.35;2.78;;;13.60;99.90;;;;;;5051664;28;20044;-70
2022/10/21 08:31:48;;;;;;;8.70;2.80;;;13.60;99.90;;;;;;5052693;28;20119;-70
2022/10/21 08:34:14;;;;;;;10.05;3.75;;;13.60;99.90;;;;;;5059220;28;20512;-71
2022/10/21 08:36:40;;;;;;;8.75;3.13;;;13.60;99.90;;;;;;5053656;28;20128;-71
2022/10/21 08:39:06;;;;;;;7.75;3.13;;;13.70;99.90;;;;;;5052749;28;20036;-71
2022/10/21 08:41:37;;;;;;;6.68;3.17;;;13.70;99.90;;;;;;5052522;28;20397;-71
2022/10/21 08:44:10;;;;;;;7.82;2.38;;;13.70;99.90;;;;;;5047370;28;20047;-70
2022/10/21 08:47:03;;;;;;;5.18;2.92;;;13.70;99.90;;;;;;5056551;28;20036;-69
2022/10/21 08:49:45;;;;;;;8.77;3.47;;;13.70;99.90;;;;;;5047593;28;20458;-71
2022/10/21 08:52:15;;;;;;;8.55;3.30;;;13.80;99.90;;;;;;5048613;28;20945;-71
2022/10/21 08:54:55;;;;;;;5.18;2.03;;;13.80;99.90;;;;;;5057434;28;20028;-71
2022/10/21 08:57:21;;;;;;;4.72;2.60;;;13.90;99.90;;;;;;5058182;28;20041;-69
2022/10/21 08:59:47;;;;;;;6.13;2.53;;;13.90;99.90;;;;;;5060241;28;20117;-70
2022/10/21 09:02:35;;;;;;;6.93;3.28;;;13.90;99.90;;;;;;5066529;28;20468;-72
2022/10/21 09:05:32;;;;;;;10.07;2.97;;;14.00;99.90;;;;;;5059581;28;20051;-70
2022/10/21 09:08:07;;;;;;;11.50;2.85;;;14.00;99.90;;;;;;5067494;28;20076;-70
2022/10/21 09:11:08;;;;;;;7.68;2.70;;;14.10;99.90;;;;;;5062289;28;20493;-70
2022/10/21 09:13:34;;;;;;;11.57;2.25;;;14.20;99.90;;;;;;5070067;28;20090;-71
2022/10/21 09:16:18;;;;;;;9.60;2.30;;;14.30;99.90;;;;;;5078107;28;20039;-70
2022/10/21 09:18:55;;;;;;;5.75;1.98;;;14.40;99.90;;;;;;5061193;28;20090;-71
2022/10/21 09:21:30;;;;;;;3.33;1.92;;;14.50;99.90;;;;;;5062088;28;20064;-70
2022/10/21 09:24:04;;;;;;;4.28;1.73;;;14.50;99.90;;;;;;5061926;28;20048;-70
2022/10/21 09:26:44;;;;;;;5.53;2.30;;;14.60;99.90;;;;;;5058347;28;20430;-71
2022/10/21 09:29:28;;;;;;;10.68;2.88;;;14.60;99.90;;;;;;5060774;28;20048;-69
2022/10/21 09:32:14;;;;;;;10.68;2.38;;;14.60;99.90;;;;;;5079773;28;20134;-71
2022/10/21 09:34:53;;;;;;;10.88;1.80;;;14.70;99.90;;;;;;5068478;28;20033;-70
2022/10/21 09:37:31;;;;;;;8.80;2.97;;;14.70;99.90;;;;;;5062910;28;20032;-71
2022/10/21 09:40:06;;;;;;;7.82;1.98;;;14.80;99.90;;;;;;5058763;28;20158;-71
2022/10/21 09:42:32;;;;;;;8.13;1.80;;;14.80;99.90;;;;;;5076628;28;20032;-70
2022/10/21 09:44:57;;;;;;;7.78;1.85;;;14.80;99.90;;;;;;5068737;28;20089;-70
2022/10/21 09:47:24;;;;;;;4.13;1.50;;;14.80;99.90;;;;;;5061606;28;20052;-71
2022/10/21 09:49:57;;;;;;;5.10;1.63;;;14.90;99.90;;;;;;5053339;28;20128;-70
2022/10/21 09:52:28;;;;;;;4.07;1.90;;;14.90;99.90;;;;;;5067924;28;20094;-70
2022/10/21 09:54:53;;;;;;;6.53;2.22;;;14.90;99.90;;;;;;5062897;28;20036;-71
2022/10/21 09:57:43;;;;;;;9.30;2.13;;;14.90;99.90;;;;;;5060831;28;20723;-70
2022/10/21 10:00:09;;;;;;;12.80;1.98;;;15.00;99.90;;;;;;5074097;28;20029;-72
2022/10/21 10:02:38;;;;;;;4.88;1.83;;;15.00;99.90;;;;;;5065943;28;20036;-70
2022/10/21 10:05:54;;;;;;;3.53;1.70;;;15.10;99.90;;;;;;5057375;28;20088;-70
2022/10/21 10:08:32;;;;;;;3.13;1.70;;;15.20;99.90;;;;;;5054224;28;20044;-71
2022/10/21 10:11:10;;;;;;;4.63;2.13;;;15.20;99.90;;;;;;5063342;28;20021;-71
2022/10/21 10:13:37;;;;;;;6.35;1.98;;;15.30;99.90;;;;;;5066831;28;20086;-71
2022/10/21 10:16:28;;;;;;;6.15;1.80;;;15.30;99.90;;;;;;5053942;28;20024;-69
2022/10/21 10:19:14;;;;;;;4.18;1.50;;;15.30;99.90;;;;;;5061346;28;20135;-71
2022/10/21 10:21:39;;;;;;;4.05;1.92;;;15.40;99.90;;;;;;5053979;28;20423;-72
2022/10/21 10:24:05;;;;;;;11.88;2.20;;;15.50;99.90;;;;;;5066849;28;20029;-70
2022/10/21 10:26:36;;;;;;;6.53;1.73;;;15.50;99.90;;;;;;5061909;28;20033;-71
2022/10/21 10:29:14;;;;;;;14.98;2.90;;;15.60;99.90;;;;;;5062541;28;20040;-72
2022/10/21 10:31:46;;;;;;;5.78;1.30;;;15.70;99.90;;;;;;5067781;28;20087;-69
2022/10/21 10:34:21;;;;;;;3.30;1.42;;;15.80;99.90;;;;;;5062654;28;20063;-69
2022/10/21 10:36:49;;;;;;;6.38;2.03;;;15.90;99.90;;;;;;5070046;28;20040;-72
2022/10/21 10:39:24;;;;;;;4.65;1.55;;;15.90;99.90;;;;;;5061513;28;20127;-73
2022/10/21 10:41:51;;;;;;;4.25;1.25;;;16.00;99.90;;;;;;5069533;28;20522;-70
2022/10/21 10:44:39;;;;;;;7.97;1.50;;;16.10;99.90;;;;;;5070195;28;20735;-70
2022/10/21 10:47:10;;;;;;;5.38;1.58;;;16.20;99.90;;;;;;5061408;28;20039;-72
2022/10/21 10:49:39;;;;;;;4.85;1.10;;;16.30;99.90;;;;;;5062915;28;20029;-72
2022/10/21 10:52:10;;;;;;;6.07;0.98;;;16.30;99.90;;;;;;5063145;28;20033;-71
2022/10/21 10:54:41;;;;;;;3.70;0.93;;;16.30;99.90;;;;;;5065356;28;20036;-72
2022/10/21 10:57:13;;;;;;;5.70;1.30;;;16.30;99.90;;;;;;5057796;28;20394;-70
2022/10/21 10:59:42;;;;;;;4.85;1.30;;;16.30;99.90;;;;;;5066604;28;20858;-72
2022/10/21 11:02:08;;;;;;;6.03;1.33;;;16.30;99.90;;;;;;5067336;28;20066;-73
2022/10/21 11:04:46;;;;;;;2.42;1.02;;;16.40;99.90;;;;;;5063098;28;20801;-71
2022/10/21 11:07:20;;;;;;;4.38;1.20;;;16.50;99.90;;;;;;5063928;28;20503;-72
2022/10/21 11:09:49;;;;;;;6.03;1.63;;;16.60;99.90;;;;;;5077642;28;20522;-70
2022/10/21 11:12:22;;;;;;;3.78;1.30;;;16.70;99.90;;;;;;5065134;28;20840;-71
2022/10/21 11:14:53;;;;;;;4.20;1.00;;;16.80;99.90;;;;;;5065846;28;20127;-72
2022/10/21 11:17:21;;;;;;;4.72;1.33;;;17.00;99.90;;;;;;5066478;28;20043;-72
2022/10/21 11:19:50;;;;;;;2.92;0.75;;;17.10;99.90;;;;;;5072341;28;20037;-71
2022/10/21 11:22:47;;;;;;;10.45;1.85;;;17.10;99.90;;;;;;5062436;28;20404;-72
2022/10/21 11:25:36;;;;;;;3.20;1.15;;;17.30;99.90;;;;;;5062101;28;20498;-69
2022/10/21 11:28:28;;;;;;;2.95;1.23;;;17.40;99.90;;;;;;5069945;27;20758;-72
2022/10/21 11:31:09;;;;;;;3.55;1.13;;;17.50;99.90;;;;;;5063554;28;20056;-72
2022/10/21 11:33:49;;;;;;;3.35;0.75;;;17.60;99.90;;;;;;5068651;28;20051;-69
2022/10/21 11:36:39;;;;;;;2.83;1.02;;;17.60;99.90;;;;;;5063831;28;21484;-72
2022/10/21 11:39:26;;;;;;;7.10;0.90;;;17.70;99.90;;;;;;5069761;28;20039;-71
2022/10/21 11:42:19;;;;;;;5.53;0.80;;;17.80;99.90;;;;;;5073724;28;20037;-68
2022/10/21 11:45:27;;;;;;;4.35;1.20;;;17.80;99.90;;;;;;5065791;28;20139;-72
2022/10/21 11:48:10;;;;;;;7.13;0.85;;;17.80;99.90;;;;;;5065075;28;20396;-71
2022/10/21 11:50:59;;;;;;;3.55;1.00;;;17.70;99.90;;;;;;5064807;28;20151;-71
2022/10/21 11:53:46;;;;;;;2.47;1.35;;;17.60;99.90;;;;;;5063642;28;20047;-70
2022/10/21 11:56:11;;;;;;;4.57;1.00;;;17.60;99.90;;;;;;5065820;28;20090;-70
2022/10/21 11:58:40;;;;;;;5.75;1.23;;;17.70;99.90;;;;;;5063213;28;20036;-71
2022/10/21 12:01:13;;;;;;;1.58;0.73;;;17.70;99.90;;;;;;5064969;28;20033;-71
2022/10/21 12:04:04;;;;;;;5.32;1.30;;;17.70;99.90;;;;;;5064219;28;20028;-71
2022/10/21 12:06:37;;;;;;;5.63;1.33;;;17.60;99.90;;;;;;5062393;28;20036;-71
2022/10/21 12:09:27;;;;;;;6.03;1.17;;;17.60;99.90;;;;;;5064425;28;20028;-74
2022/10/21 12:12:02;;;;;;;3.47;1.63;;;17.60;99.90;;;;;;5066880;28;20074;-71
2022/10/21 12:14:58;;;;;;;2.58;1.00;;;17.60;99.90;;;;;;5065592;28;20126;-72
2022/10/21 12:17:24;;;;;;;7.97;1.00;;;17.80;99.90;;;;;;5067084;28;20064;-72
2022/10/21 12:19:59;;;;;;;4.88;1.38;;;17.80;99.90;;;;;;5064491;28;20060;-71
2022/10/21 12:22:28;;;;;;;3.00;1.00;;;17.80;99.90;;;;;;5061493;28;20037;-71
2022/10/21 12:25:12;;;;;;;2.00;0.88;;;17.80;99.90;;;;;;5066012;28;20040;-72
2022/10/21 12:28:18;;;;;;;3.05;1.20;;;17.80;99.90;;;;;;5061764;28;20066;-71
2022/10/21 12:30:58;;;;;;;5.30;0.90;;;17.80;99.90;;;;;;5062854;28;20116;-71
2022/10/21 12:33:46;;;;;;;5.13;1.52;;;17.80;99.90;;;;;;5058460;28;20040;-70
2022/10/21 12:36:24;;;;;;;2.50;0.85;;;17.70;99.90;;;;;;5068986;28;20136;-71
2022/10/21 12:38:55;;;;;;;3.35;1.20;;;17.70;99.90;;;;;;5063101;28;20085;-72
2022/10/21 12:41:23;;;;;;;5.43;1.63;;;17.70;99.90;;;;;;5059686;28;20656;-71
2022/10/21 12:44:03;;;;;;;11.65;1.75;;;17.70;99.90;;;;;;5058689;28;20036;-72
2022/10/21 12:46:39;;;;;;;4.70;1.10;;;17.70;99.90;;;;;;5060348;28;20503;-70
2022/10/21 12:49:23;;;;;;;4.40;1.45;;;17.70;99.90;;;;;;5082509;28;20060;-71
2022/10/21 12:52:13;;;;;;;2.70;1.15;;;17.70;99.90;;;;;;5063112;28;20047;-71
2022/10/21 12:54:51;;;;;;;4.95;0.80;;;17.70;99.90;;;;;;5058964;28;20124;-71
2022/10/21 12:57:28;;;;;;;3.45;1.35;;;17.80;99.90;;;;;;5066450;28;20028;-70
2022/10/21 13:00:20;;;;;;;2.10;0.80;;;17.90;99.90;;;;;;5060865;28;20029;-71